Corpus Christi, TX

1:57 PM CST on March 05, 2015 (GMT -0600)
Texas State Aquarium | Change Station
CLOSE
Current Station
Personal Weather Station
Location: Corpus Christi, TX
Elevation: 36 ft
Nearby Weather Stations

Elev 36 ft 27.81 °N, 97.39 °W | Updated 16 seconds ago

Overcast
Overcast
48.4 °F
Feels Like 43 °F
N
14.8
Wind Variable Wind from West
Gusts 16.0 mph

Today
High -- | Low -- °F
--% Chance of Precip.
Yesterday
High -- | Low -- °F
Precip. -- in
6:50 AM 6:32 PM
Full, 100% visible
Pressure 30.45 in
Visibility 10.0 miles
Clouds Few 3100 ft
Scattered Clouds 10000 ft
Mostly Cloudy 25000 ft
Windchill 43 °F
Dew Point 39 °F
Humidity 70%
Rainfall in
Snow Depth Not available.
UV 0.0 out of 12
Pollen 5.70 out of 12
Air Quality Not available.
Flu Activity Not available.
METAR KCRP 051951Z 36021KT 10SM FEW031 SCT100 BKN250 10/02 A3045 RMK AO2 PK WND 35029/1936 SLP312 T01000022

More Conditions Fewer Conditions

Pressure 30.45 in
Visibility 10.0 miles
Clouds Few 3100 ft
Scattered Clouds 10000 ft
Mostly Cloudy 25000 ft
Windchill 43 °F
Dew Point 39 °F
Humidity 70%
Rainfall in
Snow Depth Not available.
UV 0.0 out of 12
Pollen 5.70 out of 12
Air Quality Not available.
Flu Activity Not available.
METAR KCRP 051951Z 36021KT 10SM FEW031 SCT100 BKN250 10/02 A3045 RMK AO2 PK WND 35029/1936 SLP312 T01000022

More Conditions Fewer Conditions

10-Day Weather Forecast

Almanac

Astronomy

Mar. 05, 2015 Rise Set
Actual Time
Civil Twilight
Nautical Twilight
Astronomical Twilight
Moon
Length of Visible Light
Length of Day
Tomorrow will be .
, % of the Moon is Illuminated

Today's Extremes

State Highs State Lows

Community

WunderPhotos

Upload Photos

1,802,929 photos uploaded!

WunderBlogs® & News

Nearby

Air Quality

  Air Quality AQ Index Pollutant
Not available.

Snow Depth

Station Depth Elevation

Earthquake Activity

City Distance Mag. Time & Date
Minimum magnitude displayed is 2.5.

Coastal Water Temperatures

Place Temperature

Nearby Weather Stations